Terminal Aerodrome Forecast
Issued by NWS

Home | Current Version | Previous Version | Text Only | Print | Product List | Glossary On
Versions: 1 2 3 4 5 6 7 8 9 10 11 12 13
327
FTUS44 KTSA 162320
TAFXNA
TAF
KXNA 162320Z 1700/1724 19010KT P6SM OVC250
     FM170400 18010KT P6SM OVC100
      TEMPO 1704/1707 6SM -RA OVC050
     FM170700 18009KT 4SM -RA BR OVC012
     FM171000 18008KT 4SM -RA BR OVC007
     FM171200 18006KT 3SM BR OVC007
     FM171700 20008KT P6SM OVC015=

USA.gov is the U.S. government's official web portal to all federal, state and local government web resources and services.